createdAt,value
2018-01-06T00:00:42.336Z,99.99
2018-01-06T00:01:55.353Z,99.99
2018-01-06T00:03:08.371Z,99.99
2018-01-06T00:04:21.383Z,99.99
2018-01-06T00:05:33.966Z,99.99
2018-01-06T00:06:46.987Z,99.99
2018-01-06T00:07:59.983Z,99.99
2018-01-06T00:09:13.013Z,99.99
2018-01-06T00:10:26.056Z,99.99
2018-01-06T00:11:39.128Z,99.99
2018-01-06T00:12:52.184Z,99.99
2018-01-06T00:14:05.217Z,99.99
2018-01-06T00:15:18.207Z,99.99
2018-01-06T00:16:31.282Z,99.99
2018-01-06T00:17:44.304Z,99.99
2018-01-06T00:18:56.880Z,99.99
2018-01-06T00:20:09.898Z,99.99
2018-01-06T00:21:22.993Z,99.99
2018-01-06T00:22:36.040Z,99.99
2018-01-06T00:23:49.039Z,99.99
2018-01-06T00:25:02.067Z,99.99
2018-01-06T00:26:15.054Z,99.99
2018-01-06T00:27:28.128Z,99.99
2018-01-06T00:28:40.908Z,99.99
2018-01-06T00:29:53.901Z,99.99
2018-01-06T00:31:06.976Z,99.99
2018-01-06T00:32:19.992Z,99.99
2018-01-06T00:33:32.978Z,99.99
2018-01-06T00:34:46.039Z,99.99
2018-01-06T00:35:59.096Z,99.99
2018-01-06T00:37:12.142Z,99.99
2018-01-06T00:38:25.159Z,99.99
2018-01-06T00:39:37.724Z,99.99
2018-01-06T00:40:50.774Z,99.99
2018-01-06T00:42:03.840Z,99.99
2018-01-06T00:43:16.863Z,99.99
2018-01-06T00:44:29.949Z,99.99
2018-01-06T00:45:43.017Z,99.99
2018-01-06T00:46:56.013Z,99.99
2018-01-06T00:48:09.036Z,99.99
2018-01-06T00:49:22.028Z,99.99
2018-01-06T00:50:35.045Z,99.99
2018-01-06T00:51:48.061Z,99.99
2018-01-06T00:53:01.061Z,99.99
2018-01-06T00:54:14.116Z,99.99
2018-01-06T00:55:27.089Z,99.99
2018-01-06T00:56:40.128Z,99.99
2018-01-06T00:57:53.150Z,99.99
2018-01-06T00:59:06.297Z,99.99
2018-01-06T01:00:19.368Z,99.99
2018-01-06T01:01:32.401Z,99.99
2018-01-06T01:02:44.994Z,99.99
2018-01-06T01:03:58.006Z,99.99
2018-01-06T01:05:11.074Z,99.99
2018-01-06T01:06:23.835Z,99.99
2018-01-06T01:07:36.620Z,99.99
2018-01-06T01:08:49.677Z,99.99
2018-01-06T01:10:02.677Z,99.99
2018-01-06T01:11:15.665Z,99.99
2018-01-06T01:12:28.472Z,99.99
2018-01-06T01:14:31.457Z,99.99
2018-01-06T01:15:44.629Z,99.99
2018-01-06T01:16:57.796Z,99.99
2018-01-06T01:18:10.953Z,99.99
2018-01-06T01:19:24.083Z,99.99
2018-01-06T01:20:37.205Z,99.99
2018-01-06T01:21:50.278Z,99.99
2018-01-06T01:23:03.396Z,99.99
2018-01-06T01:24:16.543Z,99.99
2018-01-06T01:25:29.247Z,99.99
2018-01-06T01:26:42.411Z,99.99
2018-01-06T01:27:55.548Z,99.99
2018-01-06T01:29:08.704Z,99.99
2018-01-06T01:30:21.836Z,99.99
2018-01-06T01:31:34.922Z,99.99
2018-01-06T01:32:48.094Z,99.99
2018-01-06T01:34:01.302Z,99.99
2018-01-06T01:35:13.936Z,99.99
2018-01-06T01:36:26.587Z,99.99
2018-01-06T01:37:39.762Z,99.99
2018-01-06T01:38:52.893Z,99.99
2018-01-06T01:40:06.034Z,99.99
2018-01-06T01:41:19.194Z,99.99
2018-01-06T01:42:32.374Z,99.99
2018-01-06T01:43:45.529Z,99.99
2018-01-06T01:44:58.680Z,99.99
2018-01-06T01:46:11.861Z,99.99
2018-01-06T01:47:24.958Z,99.99
2018-01-06T01:48:37.567Z,99.99
2018-01-06T01:49:50.957Z,99.99
2018-01-06T01:51:04.106Z,99.99
2018-01-06T01:52:17.228Z,99.99
2018-01-06T01:53:30.358Z,99.99
2018-01-06T01:54:43.444Z,99.99
2018-01-06T01:55:56.564Z,99.99
2018-01-06T01:57:09.707Z,99.99
2018-01-06T01:58:22.885Z,99.99
2018-01-06T01:59:35.576Z,99.99
2018-01-06T02:00:48.767Z,99.99
2018-01-06T02:02:01.985Z,99.99
2018-01-06T02:03:15.144Z,99.99
2018-01-06T02:04:28.222Z,99.99
2018-01-06T02:05:41.374Z,99.99
2018-01-06T02:06:54.527Z,99.99
2018-01-06T02:08:07.678Z,99.99
2018-01-06T02:09:20.761Z,99.99
2018-01-06T02:10:33.897Z,99.99
2018-01-06T02:11:47.082Z,99.99
2018-01-06T02:13:00.232Z,99.99
2018-01-06T02:14:13.113Z,99.99
2018-01-06T02:15:26.246Z,99.99
2018-01-06T02:16:39.451Z,99.99
2018-01-06T02:17:52.552Z,99.99
2018-01-06T02:19:05.174Z,99.99
2018-01-06T02:20:18.265Z,99.99
2018-01-06T02:21:30.928Z,99.99
2018-01-06T02:22:44.074Z,99.99
2018-01-06T02:23:57.175Z,99.99
2018-01-06T02:25:10.306Z,99.99
2018-01-06T02:26:23.482Z,99.99
2018-01-06T02:27:36.382Z,99.99
2018-01-06T02:28:49.517Z,99.99
2018-01-06T02:30:02.680Z,99.99
2018-01-06T02:31:15.776Z,99.99
2018-01-06T02:32:28.969Z,99.99
2018-01-06T02:33:42.115Z,99.99
2018-01-06T02:34:54.797Z,99.99
2018-01-06T02:36:08.016Z,99.99
2018-01-06T02:37:21.200Z,99.99
2018-01-06T02:38:34.372Z,99.99
2018-01-06T02:39:47.107Z,99.99
2018-01-06T02:41:00.296Z,99.99
2018-01-06T02:42:13.480Z,99.99
2018-01-06T02:43:26.633Z,99.99
2018-01-06T02:44:39.740Z,99.99
2018-01-06T02:45:52.914Z,99.99
2018-01-06T02:47:06.085Z,99.99
2018-01-06T02:48:19.243Z,99.99
2018-01-06T02:49:31.903Z,99.99
2018-01-06T02:50:44.978Z,99.99
2018-01-06T02:51:58.081Z,99.99
2018-01-06T02:53:11.191Z,99.99
2018-01-06T02:54:23.813Z,99.99
2018-01-06T02:55:37.044Z,99.99
2018-01-06T02:56:50.232Z,99.99
2018-01-06T02:58:03.315Z,99.99
2018-01-06T02:59:15.906Z,99.99
2018-01-06T03:00:29.049Z,99.99
2018-01-06T03:01:42.118Z,99.99
2018-01-06T03:02:55.261Z,99.99
2018-01-06T03:04:08.086Z,99.99
2018-01-06T03:05:21.221Z,99.99
2018-01-06T03:06:34.327Z,99.99
2018-01-06T03:07:47.524Z,99.99
2018-01-06T03:09:00.648Z,99.99
2018-01-06T03:10:13.761Z,99.99
2018-01-06T03:11:26.950Z,99.99
2018-01-06T03:12:40.168Z,99.99
2018-01-06T03:13:53.311Z,99.99
2018-01-06T03:15:06.438Z,99.99
2018-01-06T03:16:19.307Z,99.99
2018-01-06T03:17:32.455Z,99.99
2018-01-06T03:18:45.533Z,99.99
2018-01-06T03:19:58.139Z,99.99
2018-01-06T03:21:11.277Z,99.99
2018-01-06T03:22:24.377Z,99.99
2018-01-06T03:23:37.080Z,99.99
2018-01-06T03:24:50.245Z,99.99
2018-01-06T03:26:03.425Z,99.99
2018-01-06T03:27:16.575Z,99.99
2018-01-06T03:28:29.643Z,99.99
2018-01-06T03:29:42.792Z,99.99
2018-01-06T03:30:55.906Z,99.99
2018-01-06T03:32:09.095Z,99.99
2018-01-06T03:33:22.206Z,99.99
2018-01-06T03:34:35.307Z,99.99
2018-01-06T03:35:48.491Z,99.99
2018-01-06T03:37:01.611Z,99.99
2018-01-06T03:38:14.719Z,99.99
2018-01-06T03:39:27.410Z,99.99
2018-01-06T03:40:40.526Z,99.99
2018-01-06T03:41:53.700Z,99.99
2018-01-06T03:43:06.845Z,99.99
2018-01-06T03:44:19.997Z,99.99
2018-01-06T03:45:33.121Z,99.99
2018-01-06T03:46:46.309Z,99.99
2018-01-06T03:47:59.476Z,99.99
2018-01-06T03:49:12.092Z,99.99
2018-01-06T03:50:25.139Z,99.99
2018-01-06T03:51:38.220Z,99.99
2018-01-06T03:52:51.298Z,99.99
2018-01-06T03:54:04.346Z,99.99
2018-01-06T03:55:17.388Z,99.99
2018-01-06T03:56:30.431Z,99.99
2018-01-06T03:57:43.508Z,99.99
2018-01-06T03:58:56.526Z,99.99
2018-01-06T04:00:09.533Z,99.99
2018-01-06T04:01:22.580Z,99.99
2018-01-06T04:02:35.541Z,99.99
2018-01-06T04:03:48.624Z,99.99
2018-01-06T04:05:01.419Z,99.99
2018-01-06T04:06:14.461Z,99.99
2018-01-06T04:07:27.477Z,99.99
2018-01-06T04:08:40.498Z,99.99
2018-01-06T04:09:53.535Z,99.99
2018-01-06T04:11:06.578Z,99.99
2018-01-06T04:12:19.537Z,99.99
2018-01-06T04:13:32.599Z,99.99
2018-01-06T04:14:45.585Z,99.99
2018-01-06T04:15:58.612Z,99.99
2018-01-06T04:17:11.700Z,99.99
2018-01-06T04:18:24.762Z,99.99
2018-01-06T04:19:37.809Z,99.99
2018-01-06T04:20:50.823Z,99.99
2018-01-06T04:22:03.877Z,99.99
2018-01-06T04:23:16.875Z,99.99
2018-01-06T04:24:29.940Z,99.99
2018-01-06T04:25:42.983Z,99.99
2018-01-06T04:26:55.958Z,99.99
2018-01-06T04:28:09.002Z,99.99
2018-01-06T04:29:22.001Z,99.99
2018-01-06T04:30:35.042Z,99.99
2018-01-06T04:31:48.057Z,99.99
2018-01-06T04:33:01.100Z,99.99
2018-01-06T04:34:14.131Z,99.99
2018-01-06T04:35:27.159Z,99.99
2018-01-06T04:36:40.254Z,99.99
2018-01-06T04:37:53.241Z,99.99
2018-01-06T04:39:06.227Z,99.99
2018-01-06T04:40:19.227Z,99.99
2018-01-06T04:41:32.231Z,99.99
2018-01-06T04:42:44.801Z,99.99
2018-01-06T04:43:57.843Z,99.99
2018-01-06T04:45:10.826Z,99.99
2018-01-06T04:46:23.896Z,99.99
2018-01-06T04:47:36.957Z,99.99
2018-01-06T04:48:50.004Z,99.99
2018-01-06T04:50:03.058Z,99.99
2018-01-06T04:51:16.124Z,99.99
2018-01-06T04:52:29.182Z,99.99
2018-01-06T04:53:42.246Z,99.99
2018-01-06T04:54:55.278Z,99.99
2018-01-06T04:56:08.320Z,99.99
2018-01-06T04:57:21.366Z,99.99
2018-01-06T04:58:34.397Z,99.99
2018-01-06T04:59:47.469Z,99.99
2018-01-06T05:01:00.515Z,99.99
2018-01-06T05:02:13.572Z,99.99
2018-01-06T05:03:26.141Z,99.99
2018-01-06T05:04:39.142Z,99.99
2018-01-06T05:05:52.185Z,99.99
2018-01-06T05:07:05.198Z,99.99
2018-01-06T05:08:18.273Z,99.99
2018-01-06T05:09:31.357Z,99.99
2018-01-06T05:10:44.390Z,99.99
2018-01-06T05:11:57.418Z,99.99
2018-01-06T05:13:10.428Z,99.99
2018-01-06T05:14:23.437Z,99.99
2018-01-06T05:15:36.428Z,99.99
2018-01-06T05:16:49.466Z,99.99
2018-01-06T05:18:02.491Z,99.99
2018-01-06T05:19:15.498Z,99.99
2018-01-06T05:20:28.536Z,99.99
2018-01-06T05:21:41.516Z,99.99
2018-01-06T05:22:54.532Z,99.99
2018-01-06T05:24:07.542Z,99.99
2018-01-06T05:25:20.590Z,99.99
2018-01-06T05:26:33.654Z,99.99
2018-01-06T05:27:46.259Z,99.99
2018-01-06T05:28:59.275Z,99.99
2018-01-06T05:30:12.253Z,99.99
2018-01-06T05:31:25.309Z,99.99
2018-01-06T05:32:38.404Z,99.99
2018-01-06T05:33:51.474Z,99.99
2018-01-06T05:35:04.050Z,99.99
2018-01-06T05:36:17.083Z,99.99
2018-01-06T05:37:30.056Z,99.99
2018-01-06T05:38:43.107Z,99.99
2018-01-06T05:39:56.146Z,99.99
2018-01-06T05:41:09.254Z,99.99
2018-01-06T05:42:22.326Z,99.99
2018-01-06T05:43:35.384Z,99.99
2018-01-06T05:44:48.407Z,99.99
2018-01-06T05:46:01.458Z,99.99
2018-01-06T05:47:14.465Z,99.99
2018-01-06T05:48:27.511Z,99.99
2018-01-06T05:49:40.487Z,99.99
2018-01-06T05:50:53.512Z,99.99
2018-01-06T05:52:06.317Z,99.99
2018-01-06T05:53:18.910Z,99.99
2018-01-06T05:54:31.499Z,99.99
2018-01-06T05:55:44.505Z,99.99
2018-01-06T05:56:57.515Z,99.99
2018-01-06T05:58:10.589Z,99.99
2018-01-06T05:59:23.612Z,99.99
2018-01-06T06:00:36.693Z,99.99
2018-01-06T06:01:49.305Z,99.99
2018-01-06T06:03:02.067Z,99.99
2018-01-06T06:04:15.089Z,99.99
2018-01-06T06:05:28.114Z,99.99
2018-01-06T06:06:41.191Z,99.99
2018-01-06T06:07:54.238Z,99.99
2018-01-06T06:09:07.258Z,99.99
2018-01-06T06:10:20.306Z,99.99
2018-01-06T06:11:33.328Z,99.99
2018-01-06T06:12:46.394Z,99.99
2018-01-06T06:13:59.406Z,99.99
2018-01-06T06:15:12.449Z,99.99
2018-01-06T06:16:25.488Z,99.99
2018-01-06T06:17:38.490Z,99.99
2018-01-06T06:18:51.493Z,99.99
2018-01-06T06:20:04.471Z,99.99
2018-01-06T06:21:17.505Z,99.99
2018-01-06T06:22:30.084Z,99.99
2018-01-06T06:23:43.099Z,99.99
2018-01-06T06:24:56.122Z,99.99
2018-01-06T06:26:09.124Z,99.99
2018-01-06T06:27:22.153Z,99.99
2018-01-06T06:28:35.168Z,99.99
2018-01-06T06:29:47.264Z,99.99
2018-01-06T06:31:00.332Z,99.99
2018-01-06T06:32:13.362Z,99.99
2018-01-06T06:33:57.618Z,99.99
2018-01-06T06:35:10.186Z,99.99
2018-01-06T06:36:23.230Z,99.99
2018-01-06T06:37:36.226Z,99.99
2018-01-06T06:38:49.219Z,99.99
2018-01-06T06:40:02.220Z,99.99
2018-01-06T06:41:14.294Z,99.99
2018-01-06T06:42:27.336Z,99.99
2018-01-06T06:43:40.348Z,99.99
2018-01-06T06:44:53.357Z,99.99
2018-01-06T06:46:06.415Z,99.99
2018-01-06T06:47:19.516Z,99.99
2018-01-06T06:48:32.100Z,99.99
2018-01-06T06:49:45.111Z,99.99
2018-01-06T06:50:57.653Z,99.99
2018-01-06T06:52:10.718Z,99.99
2018-01-06T06:53:23.707Z,99.99
2018-01-06T06:54:36.757Z,99.99
2018-01-06T06:55:49.821Z,99.99
2018-01-06T06:57:02.849Z,99.99
2018-01-06T06:58:15.903Z,99.99
2018-01-06T06:59:28.946Z,99.99
2018-01-06T07:00:42.024Z,99.99
2018-01-06T07:01:54.989Z,99.99
2018-01-06T07:03:08.008Z,99.99
2018-01-06T07:04:21.037Z,99.99
2018-01-06T07:05:33.672Z,99.99
2018-01-06T07:06:46.708Z,99.99
2018-01-06T07:07:59.716Z,99.99
2018-01-06T07:09:12.730Z,99.99
2018-01-06T07:10:25.347Z,99.99
2018-01-06T07:11:38.455Z,99.99
2018-01-06T07:12:51.600Z,99.99
2018-01-06T07:14:04.600Z,99.99
2018-01-06T07:15:17.614Z,99.99
2018-01-06T07:16:30.672Z,99.99
2018-01-06T07:17:43.688Z,99.99
2018-01-06T07:18:56.750Z,99.99
2018-01-06T07:20:09.836Z,99.99
2018-01-06T07:21:22.844Z,99.99
2018-01-06T07:22:35.854Z,99.99
2018-01-06T07:23:48.856Z,99.99
2018-01-06T07:25:01.879Z,99.99
2018-01-06T07:26:14.856Z,99.99
2018-01-06T07:27:27.894Z,99.99
2018-01-06T07:28:40.907Z,99.99
2018-01-06T07:29:53.466Z,99.99
2018-01-06T07:31:06.446Z,99.99
2018-01-06T07:32:19.516Z,99.99
2018-01-06T07:33:32.511Z,99.99
2018-01-06T07:34:45.533Z,99.99
2018-01-06T07:35:58.546Z,99.99
2018-01-06T07:37:11.549Z,99.99
2018-01-06T07:38:24.564Z,99.99
2018-01-06T07:39:37.628Z,99.99
2018-01-06T07:40:50.636Z,99.99
2018-01-06T07:42:03.714Z,99.99
2018-01-06T07:43:16.694Z,99.99
2018-01-06T07:44:29.721Z,99.99
2018-01-06T07:45:42.802Z,99.99
2018-01-06T07:46:55.808Z,99.99
2018-01-06T07:48:08.819Z,99.99
2018-01-06T07:49:21.374Z,99.99
2018-01-06T07:50:34.476Z,99.99
2018-01-06T07:51:47.534Z,99.99
2018-01-06T07:53:00.609Z,99.99
2018-01-06T07:54:13.682Z,99.99
2018-01-06T07:55:26.740Z,99.99
2018-01-06T07:56:39.739Z,99.99
2018-01-06T07:57:52.738Z,99.99
2018-01-06T07:59:05.757Z,99.99
2018-01-06T08:00:18.545Z,99.99
2018-01-06T08:01:31.582Z,99.99
2018-01-06T08:02:44.648Z,99.99
2018-01-06T08:03:57.649Z,99.99
2018-01-06T08:05:10.651Z,99.99
2018-01-06T08:06:23.663Z,99.99
2018-01-06T08:07:36.659Z,99.99
2018-01-06T08:08:49.707Z,99.99
2018-01-06T08:10:02.702Z,99.99
2018-01-06T08:11:15.737Z,99.99
2018-01-06T08:12:28.556Z,99.99
2018-01-06T08:13:41.394Z,99.99
2018-01-06T08:14:53.907Z,99.99
2018-01-06T08:16:06.915Z,99.99
2018-01-06T08:17:19.916Z,99.99
2018-01-06T08:18:32.944Z,99.99
2018-01-06T08:19:45.976Z,99.99
2018-01-06T08:20:59.047Z,99.99
2018-01-06T08:22:12.070Z,99.99
2018-01-06T08:23:25.144Z,99.99
2018-01-06T08:24:38.179Z,99.99
2018-01-06T08:25:51.201Z,99.99
2018-01-06T08:27:04.246Z,99.99
2018-01-06T08:28:17.281Z,99.99
2018-01-06T08:29:30.365Z,99.99
2018-01-06T08:30:43.428Z,99.99
2018-01-06T08:31:56.482Z,99.99
2018-01-06T08:33:09.527Z,99.99
2018-01-06T08:34:22.569Z,99.99
2018-01-06T08:35:35.624Z,99.99
2018-01-06T08:36:48.634Z,99.99
2018-01-06T08:38:01.664Z,99.99
2018-01-06T08:39:14.717Z,99.99
2018-01-06T08:40:27.313Z,99.99
2018-01-06T08:41:40.309Z,99.99
2018-01-06T08:42:53.355Z,99.99
2018-01-06T08:44:06.376Z,99.99
2018-01-06T08:45:19.453Z,99.99
2018-01-06T08:46:32.502Z,99.99
2018-01-06T08:47:45.558Z,99.99
2018-01-06T08:48:58.592Z,99.99
2018-01-06T08:50:11.671Z,99.99
2018-01-06T08:51:24.676Z,99.99
2018-01-06T08:52:37.726Z,99.99
2018-01-06T08:53:50.840Z,99.99
2018-01-06T08:55:03.817Z,99.99
2018-01-06T08:56:16.848Z,99.99
2018-01-06T08:57:29.835Z,99.99
2018-01-06T08:59:14.036Z,99.99
2018-01-06T09:00:27.034Z,99.99
2018-01-06T09:01:40.081Z,99.99
2018-01-06T09:02:53.116Z,99.99
2018-01-06T09:04:06.154Z,99.99
2018-01-06T09:05:18.913Z,99.99
2018-01-06T09:06:31.953Z,99.99
2018-01-06T09:07:44.583Z,99.99
2018-01-06T09:08:57.568Z,99.99
2018-01-06T09:10:10.601Z,99.99
2018-01-06T09:11:23.648Z,99.99
2018-01-06T09:12:36.643Z,99.99
2018-01-06T09:13:49.692Z,99.99
2018-01-06T09:15:02.745Z,99.99
2018-01-06T09:16:15.785Z,99.99
2018-01-06T09:17:28.786Z,99.99
2018-01-06T09:18:41.850Z,99.99
2018-01-06T09:19:54.880Z,99.99
2018-01-06T09:21:07.916Z,99.99
2018-01-06T09:22:20.955Z,99.99
2018-01-06T09:23:33.993Z,99.99
2018-01-06T09:24:47.010Z,99.99
2018-01-06T09:25:59.541Z,99.99
2018-01-06T09:27:12.560Z,99.99
2018-01-06T09:28:25.592Z,99.99
2018-01-06T09:29:38.585Z,99.99
2018-01-06T09:30:51.658Z,99.99
2018-01-06T09:32:04.706Z,99.99
2018-01-06T09:33:17.710Z,99.99
2018-01-06T09:34:30.752Z,99.99
2018-01-06T09:35:43.797Z,99.99
2018-01-06T09:36:56.827Z,99.99
2018-01-06T09:38:09.879Z,99.99
2018-01-06T09:39:22.910Z,99.99
2018-01-06T09:40:35.916Z,99.99
2018-01-06T09:41:48.692Z,99.99
2018-01-06T09:43:01.795Z,99.99
2018-01-06T09:44:14.817Z,99.99
2018-01-06T09:45:27.886Z,99.99
2018-01-06T09:46:40.937Z,99.99
2018-01-06T09:47:53.994Z,99.99
2018-01-06T09:49:07.107Z,99.99
2018-01-06T09:50:20.181Z,99.99
2018-01-06T09:51:33.253Z,99.99
2018-01-06T09:52:46.307Z,99.99
2018-01-06T09:53:59.341Z,99.99
2018-01-06T09:55:12.386Z,99.99
2018-01-06T09:56:25.405Z,99.99
2018-01-06T09:57:38.466Z,99.99
2018-01-06T09:58:51.044Z,99.99
2018-01-06T10:00:04.088Z,99.99
2018-01-06T10:01:17.085Z,99.99
2018-01-06T10:02:29.894Z,99.99
2018-01-06T10:03:42.957Z,99.99
2018-01-06T10:04:56.015Z,99.99
2018-01-06T10:06:09.044Z,99.99
2018-01-06T10:07:22.095Z,99.99
2018-01-06T10:08:35.111Z,99.99
2018-01-06T10:09:48.167Z,99.99
2018-01-06T10:11:01.234Z,99.99
2018-01-06T10:12:13.841Z,99.99
2018-01-06T10:13:26.957Z,99.99
2018-01-06T10:14:40.021Z,99.99
2018-01-06T10:15:52.868Z,99.99
2018-01-06T10:17:05.873Z,99.99
2018-01-06T10:18:18.946Z,99.99
2018-01-06T10:19:31.910Z,99.99
2018-01-06T10:20:44.906Z,99.99
2018-01-06T10:21:57.920Z,99.99
2018-01-06T10:23:10.969Z,99.99
2018-01-06T10:24:24.007Z,99.99
2018-01-06T10:25:37.057Z,99.99
2018-01-06T10:26:50.125Z,99.99
2018-01-06T10:28:03.172Z,99.99
2018-01-06T10:29:16.213Z,99.99
2018-01-06T10:30:29.234Z,99.99
2018-01-06T10:31:42.232Z,99.99
2018-01-06T10:32:55.252Z,99.99
2018-01-06T10:34:07.785Z,99.99
2018-01-06T10:35:20.379Z,99.99
2018-01-06T10:36:33.408Z,99.99
2018-01-06T10:37:46.442Z,99.99
2018-01-06T10:38:59.507Z,99.99
2018-01-06T10:40:12.524Z,99.99
2018-01-06T10:41:25.633Z,99.99
2018-01-06T10:42:38.650Z,99.99
2018-01-06T10:43:51.666Z,99.99
2018-01-06T10:45:04.767Z,99.99
2018-01-06T10:46:17.799Z,99.99
2018-01-06T10:47:30.792Z,99.99
2018-01-06T10:48:43.769Z,99.99
2018-01-06T10:49:56.812Z,99.99
2018-01-06T10:51:09.898Z,99.99
2018-01-06T10:52:22.531Z,99.99
2018-01-06T10:53:35.693Z,99.99
2018-01-06T10:54:48.680Z,99.99
2018-01-06T10:56:01.729Z,99.99
2018-01-06T10:57:14.746Z,99.99
2018-01-06T10:58:27.776Z,99.99
2018-01-06T10:59:40.843Z,99.99
2018-01-06T11:00:53.936Z,99.99
2018-01-06T11:02:06.926Z,99.99
2018-01-06T11:03:19.911Z,99.99
2018-01-06T11:04:32.964Z,99.99
2018-01-06T11:05:45.960Z,99.99
2018-01-06T11:06:59.002Z,99.99
2018-01-06T11:08:12.048Z,99.99
2018-01-06T11:09:25.125Z,99.99
2018-01-06T11:10:38.163Z,99.99
2018-01-06T11:11:51.173Z,99.99
2018-01-06T11:13:04.247Z,99.99
2018-01-06T11:14:17.330Z,99.99
2018-01-06T11:15:30.382Z,99.99
2018-01-06T11:16:43.412Z,99.99
2018-01-06T11:17:56.420Z,99.99
2018-01-06T11:19:09.492Z,99.99
2018-01-06T11:20:22.690Z,99.99
2018-01-06T11:21:35.253Z,99.99
2018-01-06T11:22:48.061Z,99.99
2018-01-06T11:24:01.066Z,99.99
2018-01-06T11:25:14.064Z,99.99
2018-01-06T11:26:27.059Z,99.99
2018-01-06T11:27:40.092Z,99.99
2018-01-06T11:28:53.099Z,99.99
2018-01-06T11:30:06.171Z,99.99
2018-01-06T11:31:19.235Z,99.99
2018-01-06T11:32:32.227Z,99.99
2018-01-06T11:33:45.046Z,99.99
2018-01-06T11:34:58.089Z,99.99
2018-01-06T11:36:11.183Z,99.99
2018-01-06T11:37:24.252Z,99.99
2018-01-06T11:38:37.360Z,99.99
2018-01-06T11:39:50.380Z,99.99
2018-01-06T11:41:03.434Z,99.99
2018-01-06T11:42:16.499Z,99.99
2018-01-06T11:43:29.569Z,99.99
2018-01-06T11:44:42.547Z,99.99
2018-01-06T11:45:55.608Z,99.99
2018-01-06T11:47:08.740Z,99.99
2018-01-06T11:48:21.829Z,99.99
2018-01-06T11:49:34.897Z,99.99
2018-01-06T11:50:47.927Z,99.99
2018-01-06T11:52:00.973Z,99.99
2018-01-06T11:53:13.999Z,99.99
2018-01-06T11:54:27.051Z,99.99
2018-01-06T11:55:40.145Z,99.99
2018-01-06T11:56:52.728Z,99.99
2018-01-06T11:58:05.260Z,99.99
2018-01-06T11:59:18.298Z,99.99
2018-01-06T12:00:31.290Z,99.99
2018-01-06T12:01:44.279Z,99.99
2018-01-06T12:02:57.346Z,99.99
2018-01-06T12:04:10.161Z,99.99
2018-01-06T12:05:23.183Z,99.99
2018-01-06T12:06:36.228Z,99.99
2018-01-06T12:07:49.346Z,99.99
2018-01-06T12:09:02.383Z,99.99
2018-01-06T12:10:15.421Z,99.99
2018-01-06T12:11:28.482Z,99.99
2018-01-06T12:12:41.511Z,99.99
2018-01-06T12:13:54.551Z,99.99
2018-01-06T12:15:07.589Z,99.99
2018-01-06T12:16:20.582Z,99.99
2018-01-06T12:17:33.625Z,99.99
2018-01-06T12:18:46.708Z,99.99
2018-01-06T12:19:59.284Z,99.99
2018-01-06T12:21:12.313Z,99.99
2018-01-06T12:22:25.364Z,99.99
2018-01-06T12:23:38.432Z,99.99
2018-01-06T12:24:51.444Z,99.99
2018-01-06T12:26:04.465Z,99.99
2018-01-06T12:27:17.499Z,99.99
2018-01-06T12:28:30.551Z,99.99
2018-01-06T12:29:43.403Z,99.99
2018-01-06T12:30:56.403Z,99.99
2018-01-06T12:32:09.186Z,99.99
2018-01-06T12:33:22.197Z,99.99
2018-01-06T12:34:35.202Z,99.99
2018-01-06T12:35:48.185Z,99.99
2018-01-06T12:37:01.190Z,99.99
2018-01-06T12:38:14.187Z,99.99
2018-01-06T12:39:27.221Z,99.99
2018-01-06T12:40:40.270Z,99.99
2018-01-06T12:41:53.349Z,99.99
2018-01-06T12:43:06.381Z,99.99
2018-01-06T12:44:19.385Z,99.99
2018-01-06T12:45:32.384Z,99.99
2018-01-06T12:46:44.982Z,99.99
2018-01-06T12:47:58.008Z,99.99
2018-01-06T12:49:11.079Z,99.99
2018-01-06T12:50:24.106Z,99.99
2018-01-06T12:51:37.124Z,99.99
2018-01-06T12:52:49.226Z,99.99
2018-01-06T12:54:02.244Z,99.99
2018-01-06T12:55:15.238Z,99.99
2018-01-06T12:56:28.215Z,99.99
2018-01-06T12:57:41.321Z,99.99
2018-01-06T12:58:53.913Z,99.99
2018-01-06T13:00:06.919Z,99.99
2018-01-06T13:01:19.977Z,99.99
2018-01-06T13:02:33.013Z,99.99
2018-01-06T13:03:46.070Z,99.99
2018-01-06T13:04:59.143Z,99.99
2018-01-06T13:06:12.178Z,99.99
2018-01-06T13:07:25.268Z,99.99
2018-01-06T13:08:38.300Z,99.99
2018-01-06T13:09:51.362Z,99.99
2018-01-06T13:11:04.437Z,99.99
2018-01-06T13:12:17.440Z,99.99
2018-01-06T13:13:30.468Z,99.99
2018-01-06T13:14:43.505Z,99.99
2018-01-06T13:15:56.510Z,99.99
2018-01-06T13:17:09.523Z,99.99
2018-01-06T13:18:22.533Z,99.99
2018-01-06T13:19:35.642Z,99.99
2018-01-06T13:20:48.764Z,99.99
2018-01-06T13:22:01.858Z,99.99
2018-01-06T13:23:14.453Z,99.99
2018-01-06T13:24:27.489Z,99.99
2018-01-06T13:25:40.508Z,99.99
2018-01-06T13:26:53.593Z,99.99
2018-01-06T13:28:06.388Z,99.99
2018-01-06T13:29:19.447Z,99.99
2018-01-06T13:30:32.275Z,99.99
2018-01-06T13:31:45.314Z,99.99
2018-01-06T13:32:58.389Z,99.99
2018-01-06T13:34:11.463Z,99.99
2018-01-06T13:35:24.495Z,99.99
2018-01-06T13:36:37.551Z,99.99
2018-01-06T13:37:50.572Z,99.99
2018-01-06T13:39:03.160Z,99.99
2018-01-06T13:40:16.214Z,99.99
2018-01-06T13:41:28.767Z,99.99
2018-01-06T13:42:41.851Z,99.99
2018-01-06T13:43:54.883Z,99.99
2018-01-06T13:45:07.923Z,99.99
2018-01-06T13:46:20.954Z,99.99
2018-01-06T13:47:33.974Z,99.99
2018-01-06T13:48:47.022Z,99.99
2018-01-06T13:49:59.882Z,99.99
2018-01-06T13:51:12.924Z,99.99
2018-01-06T13:52:26.011Z,99.99
2018-01-06T13:53:39.070Z,99.99
2018-01-06T13:54:52.104Z,99.99
2018-01-06T13:56:05.167Z,99.99
2018-01-06T13:57:18.290Z,99.99
2018-01-06T13:58:31.313Z,99.99
2018-01-06T13:59:44.413Z,99.99
2018-01-06T14:00:57.429Z,99.99
2018-01-06T14:02:10.449Z,99.99
2018-01-06T14:03:23.023Z,99.99
2018-01-06T14:04:36.030Z,99.99
2018-01-06T14:05:49.102Z,99.99
2018-01-06T14:07:02.166Z,99.99
2018-01-06T14:08:15.222Z,99.99
2018-01-06T14:09:28.318Z,99.99
2018-01-06T14:10:40.882Z,99.99
2018-01-06T14:11:53.979Z,99.99
2018-01-06T14:13:07.023Z,99.99
2018-01-06T14:14:20.092Z,99.99
2018-01-06T14:15:33.080Z,99.99
2018-01-06T14:16:46.136Z,99.99
2018-01-06T14:17:59.129Z,99.99
2018-01-06T14:19:11.714Z,99.99
2018-01-06T14:20:24.724Z,99.99
2018-01-06T14:21:37.758Z,99.99
2018-01-06T14:22:50.356Z,99.99
2018-01-06T14:24:03.439Z,99.99
2018-01-06T14:25:16.458Z,99.99
2018-01-06T14:26:29.458Z,99.99
2018-01-06T14:27:42.495Z,99.99
2018-01-06T14:28:55.543Z,99.99
2018-01-06T14:30:08.557Z,99.99
2018-01-06T14:31:21.604Z,99.99
2018-01-06T14:32:34.443Z,99.99
2018-01-06T14:33:47.494Z,99.99
2018-01-06T14:35:00.541Z,99.99
2018-01-06T14:36:13.539Z,99.99
2018-01-06T14:37:29.822Z,99.99
2018-01-06T14:38:44.922Z,99.99
2018-01-06T14:39:57.962Z,99.99
2018-01-06T14:41:11.030Z,99.99
2018-01-06T14:42:24.045Z,99.99
2018-01-06T14:43:37.082Z,99.99
2018-01-06T14:44:50.196Z,99.99
2018-01-06T14:46:03.240Z,99.99
2018-01-06T14:47:16.288Z,99.99
2018-01-06T14:48:29.270Z,99.99
2018-01-06T14:49:42.253Z,99.99
2018-01-06T14:50:55.313Z,99.99
2018-01-06T14:52:08.441Z,99.99
2018-01-06T14:53:21.471Z,99.99
2018-01-06T14:54:34.546Z,99.99
2018-01-06T14:55:47.568Z,99.99
2018-01-06T14:57:00.558Z,99.99
2018-01-06T14:58:13.567Z,99.99
2018-01-06T14:59:26.360Z,99.99
2018-01-06T15:00:39.407Z,99.99
2018-01-06T15:01:52.476Z,99.99
2018-01-06T15:03:05.467Z,99.99
2018-01-06T15:04:18.510Z,99.99
2018-01-06T15:05:31.598Z,99.99
2018-01-06T15:06:44.668Z,99.99
2018-01-06T15:07:57.723Z,99.99
2018-01-06T15:09:10.761Z,99.55
2018-01-06T15:10:23.823Z,99.99
2018-01-06T15:11:36.433Z,99.32
2018-01-06T15:12:49.485Z,98.93
2018-01-06T15:14:02.578Z,99.46
2018-01-06T15:15:15.613Z,99.9
2018-01-06T15:16:28.621Z,99.7
2018-01-06T15:17:41.704Z,99.99
2018-01-06T15:18:54.726Z,99.99
2018-01-06T15:20:07.757Z,99.99
2018-01-06T15:21:20.838Z,99.99
2018-01-06T15:22:33.896Z,99.99
2018-01-06T15:23:46.905Z,99.99
2018-01-06T15:24:59.938Z,99.99
2018-01-06T15:26:12.985Z,99.99
2018-01-06T15:27:26.075Z,99.99
2018-01-06T15:28:39.087Z,99.99
2018-01-06T15:29:52.116Z,99.99
2018-01-06T15:31:05.197Z,99.99
2018-01-06T15:32:18.224Z,99.99
2018-01-06T15:33:31.200Z,99.99
2018-01-06T15:34:44.205Z,99.99
2018-01-06T15:35:57.213Z,99.99
2018-01-06T15:37:10.249Z,99.65
2018-01-06T15:38:23.301Z,99.27
2018-01-06T15:39:36.318Z,98.93
2018-01-06T15:40:49.358Z,97.66
2018-01-06T15:42:02.361Z,97.03